createdAt,value
2022-09-22T00:00:40.380Z,82.89
2022-09-22T00:01:37.439Z,82.79
2022-09-22T00:02:37.306Z,82.89
2022-09-22T00:03:37.298Z,82.79
2022-09-22T00:04:37.350Z,82.89
2022-09-22T00:05:37.276Z,82.89
2022-09-22T00:06:37.289Z,82.79
2022-09-22T00:07:37.281Z,82.69
2022-09-22T00:08:37.288Z,82.59
2022-09-22T00:09:37.259Z,82.48
2022-09-22T00:10:37.188Z,82.48
2022-09-22T00:11:37.199Z,82.38
2022-09-22T00:12:37.167Z,82.38
2022-09-22T00:13:37.151Z,82.48
2022-09-22T00:14:37.260Z,82.59
2022-09-22T00:15:37.161Z,82.69
2022-09-22T00:16:37.350Z,82.89
2022-09-22T00:17:37.115Z,83.14
2022-09-22T00:18:37.084Z,83.25
2022-09-22T00:19:40.110Z,83.34
2022-09-22T00:20:40.135Z,83.34
2022-09-22T00:21:37.049Z,83.34
2022-09-22T00:22:37.096Z,83.34
2022-09-22T00:23:37.060Z,83.34
2022-09-22T00:24:37.050Z,83.25
2022-09-22T00:25:37.103Z,83.14
2022-09-22T00:26:36.994Z,83.04
2022-09-22T00:27:37.043Z,83.04
2022-09-22T00:28:36.959Z,82.83
2022-09-22T00:29:36.939Z,82.73
2022-09-22T00:30:36.933Z,82.62
2022-09-22T00:31:36.953Z,82.52
2022-09-22T00:32:36.983Z,82.42
2022-09-22T00:33:36.883Z,82.42
2022-09-22T00:34:36.944Z,82.31
2022-09-22T00:35:36.896Z,82.21
2022-09-22T00:36:36.851Z,82.21
2022-09-22T00:37:36.827Z,82.31
2022-09-22T00:38:36.911Z,82.21
2022-09-22T00:39:39.823Z,82.10
2022-09-22T00:40:39.848Z,82.10
2022-09-22T00:41:36.785Z,82.10
2022-09-22T00:42:36.916Z,82.21
2022-09-22T00:43:36.789Z,82.31
2022-09-22T00:44:36.795Z,82.31
2022-09-22T00:45:36.754Z,82.42
2022-09-22T00:46:36.807Z,82.56
2022-09-22T00:47:36.697Z,82.87
2022-09-22T00:48:36.715Z,83.07
2022-09-22T00:49:36.682Z,83.28
2022-09-22T00:50:36.710Z,83.49
2022-09-22T00:51:36.687Z,83.73
2022-09-22T00:52:36.635Z,83.84
2022-09-22T00:53:36.637Z,83.94
2022-09-22T00:54:36.598Z,83.84
2022-09-22T00:55:36.629Z,83.84
2022-09-22T00:56:36.599Z,83.84
2022-09-22T00:57:36.569Z,83.84
2022-09-22T00:58:36.549Z,83.94
2022-09-22T00:59:39.592Z,83.98
2022-09-22T01:00:39.634Z,84.08
2022-09-22T01:01:36.586Z,84.19
2022-09-22T01:02:36.504Z,84.19
2022-09-22T01:03:36.491Z,84.08
2022-09-22T01:04:36.540Z,84.19
2022-09-22T01:05:36.453Z,84.19
2022-09-22T01:06:36.461Z,84.19
2022-09-22T01:07:36.422Z,84.19
2022-09-22T01:08:36.421Z,84.22
2022-09-22T01:09:36.405Z,84.22
2022-09-22T01:10:36.454Z,84.22
2022-09-22T01:11:36.404Z,84.22
2022-09-22T01:12:36.383Z,84.12
2022-09-22T01:13:36.362Z,84.12
2022-09-22T01:14:36.400Z,84.01
2022-09-22T01:15:36.398Z,84.12
2022-09-22T01:16:36.373Z,83.91
2022-09-22T01:17:36.384Z,83.91
2022-09-22T01:18:36.284Z,83.91
2022-09-22T01:19:39.293Z,83.91
2022-09-22T01:20:39.285Z,84.01
2022-09-22T01:21:36.238Z,84.06
2022-09-22T01:22:36.224Z,84.06
2022-09-22T01:23:36.319Z,84.06
2022-09-22T01:24:36.249Z,83.95
2022-09-22T01:25:36.176Z,84.06
2022-09-22T01:26:36.176Z,84.06
2022-09-22T01:27:36.168Z,83.95
2022-09-22T01:28:36.154Z,83.95
2022-09-22T01:29:36.166Z,83.95
2022-09-22T01:30:36.141Z,83.85
2022-09-22T01:31:36.174Z,83.85
2022-09-22T01:32:36.088Z,83.85
2022-09-22T01:33:36.118Z,83.75
2022-09-22T01:34:36.107Z,83.85
2022-09-22T01:35:36.059Z,83.75
2022-09-22T01:36:36.039Z,83.75
2022-09-22T01:37:36.020Z,83.75
2022-09-22T01:38:36.067Z,83.85
2022-09-22T01:39:39.051Z,83.75
2022-09-22T01:40:39.044Z,83.85
2022-09-22T01:41:35.968Z,83.85
2022-09-22T01:42:35.957Z,83.85
2022-09-22T01:43:35.939Z,83.95
2022-09-22T01:44:35.921Z,83.95
2022-09-22T01:45:35.948Z,84.09
2022-09-22T01:46:35.966Z,84.30
2022-09-22T01:47:35.900Z,84.51
2022-09-22T01:48:35.862Z,84.61
2022-09-22T01:49:35.889Z,84.72
2022-09-22T01:50:35.849Z,84.82
2022-09-22T01:51:35.863Z,84.82
2022-09-22T01:52:35.827Z,84.82
2022-09-22T01:53:35.800Z,84.82
2022-09-22T01:54:35.772Z,84.75
2022-09-22T01:55:35.763Z,84.65
2022-09-22T01:56:35.796Z,84.65
2022-09-22T01:57:35.742Z,84.55
2022-09-22T01:58:35.736Z,84.65
2022-09-22T01:59:38.744Z,84.65
2022-09-22T02:00:38.721Z,84.75
2022-09-22T02:01:35.836Z,84.65
2022-09-22T02:02:35.985Z,84.44
2022-09-22T02:03:35.684Z,84.34
2022-09-22T02:04:35.676Z,84.23
2022-09-22T02:05:35.619Z,84.23
2022-09-22T02:06:35.639Z,84.13
2022-09-22T02:07:35.615Z,84.13
2022-09-22T02:08:35.636Z,84.03
2022-09-22T02:09:35.566Z,84.03
2022-09-22T02:10:35.557Z,83.93
2022-09-22T02:11:35.541Z,84.03
2022-09-22T02:12:35.546Z,84.03
2022-09-22T02:13:35.540Z,84.13
2022-09-22T02:14:35.541Z,84.03
2022-09-22T02:15:35.520Z,84.23
2022-09-22T02:16:35.527Z,84.13
2022-09-22T02:17:35.679Z,84.13
2022-09-22T02:18:35.458Z,84.23
2022-09-22T02:19:38.488Z,84.23
2022-09-22T02:20:38.449Z,84.23
2022-09-22T02:21:35.448Z,84.28
2022-09-22T02:22:35.397Z,84.28
2022-09-22T02:23:35.407Z,84.38
2022-09-22T02:24:35.429Z,84.48
2022-09-22T02:25:35.410Z,84.48
2022-09-22T02:26:35.373Z,84.38
2022-09-22T02:27:35.321Z,84.38
2022-09-22T02:28:35.302Z,84.38
2022-09-22T02:29:35.301Z,84.38
2022-09-22T02:30:35.353Z,84.38
2022-09-22T02:31:35.356Z,84.38
2022-09-22T02:32:35.261Z,84.38
2022-09-22T02:33:38.229Z,84.38
2022-09-22T02:34:35.236Z,84.38
2022-09-22T02:35:35.232Z,84.38
2022-09-22T02:36:35.193Z,84.28
2022-09-22T02:37:35.262Z,84.28
2022-09-22T02:38:35.173Z,84.28
2022-09-22T02:39:38.182Z,84.28
2022-09-22T02:40:38.226Z,84.38
2022-09-22T02:41:35.133Z,84.38
2022-09-22T02:42:35.183Z,84.52
2022-09-22T02:43:35.142Z,84.52
2022-09-22T02:44:35.144Z,84.52
2022-09-22T02:45:35.103Z,84.52
2022-09-22T02:46:35.132Z,84.52
2022-09-22T02:47:35.068Z,84.42
2022-09-22T02:48:35.041Z,84.42
2022-09-22T02:49:35.021Z,84.42
2022-09-22T02:50:35.096Z,84.42
2022-09-22T02:51:35.026Z,84.52
2022-09-22T02:52:34.984Z,84.52
2022-09-22T02:53:34.966Z,84.52
2022-09-22T02:54:34.998Z,84.42
2022-09-22T02:55:34.947Z,84.42
2022-09-22T02:56:34.956Z,84.42
2022-09-22T02:57:34.932Z,84.42
2022-09-22T02:58:34.908Z,84.42
2022-09-22T02:59:37.957Z,84.52
2022-09-22T03:00:37.914Z,84.63
2022-09-22T03:01:34.993Z,84.52
2022-09-22T03:02:34.849Z,84.52
2022-09-22T03:03:34.861Z,84.52
2022-09-22T03:04:34.865Z,84.56
2022-09-22T03:05:34.808Z,84.46
2022-09-22T03:06:34.836Z,84.31
2022-09-22T03:07:34.841Z,84.25
2022-09-22T03:08:34.788Z,84.25
2022-09-22T03:09:34.769Z,84.25
2022-09-22T03:10:34.758Z,84.25
2022-09-22T03:11:34.729Z,84.15
2022-09-22T03:12:34.710Z,84.15
2022-09-22T03:13:34.750Z,84.15
2022-09-22T03:14:34.701Z,83.94
2022-09-22T03:15:34.746Z,83.94
2022-09-22T03:16:34.682Z,83.84
2022-09-22T03:17:34.690Z,83.84
2022-09-22T03:18:34.721Z,83.73
2022-09-22T03:19:37.641Z,83.73
2022-09-22T03:20:37.650Z,83.73
2022-09-22T03:21:34.631Z,83.73
2022-09-22T03:22:34.611Z,83.73
2022-09-22T03:23:34.691Z,83.73
2022-09-22T03:24:34.565Z,83.73
2022-09-22T03:25:34.633Z,83.84
2022-09-22T03:26:34.534Z,83.84
2022-09-22T03:27:34.553Z,84.05
2022-09-22T03:28:34.574Z,84.15
2022-09-22T03:29:34.573Z,84.15
2022-09-22T03:30:34.544Z,84.15
2022-09-22T03:31:34.475Z,84.25
2022-09-22T03:32:34.454Z,84.36
2022-09-22T03:33:34.557Z,84.46
2022-09-22T03:34:34.452Z,84.36
2022-09-22T03:35:34.452Z,84.56
2022-09-22T03:36:34.445Z,84.46
2022-09-22T03:37:34.406Z,84.56
2022-09-22T03:38:34.409Z,84.56
2022-09-22T03:39:37.415Z,84.46
2022-09-22T03:40:37.452Z,84.46
2022-09-22T03:41:34.385Z,84.46
2022-09-22T03:42:34.367Z,84.50
2022-09-22T03:43:34.335Z,84.50
2022-09-22T03:44:34.348Z,84.60
2022-09-22T03:45:34.331Z,84.50
2022-09-22T03:46:34.371Z,84.50
2022-09-22T03:47:34.350Z,84.50
2022-09-22T03:48:34.267Z,84.39
2022-09-22T03:49:34.258Z,84.29
2022-09-22T03:50:34.238Z,84.29
2022-09-22T03:51:34.272Z,84.19
2022-09-22T03:52:34.249Z,84.19
2022-09-22T03:53:34.290Z,84.08
2022-09-22T03:54:34.226Z,83.98
2022-09-22T03:55:34.199Z,83.98
2022-09-22T03:56:34.170Z,83.87
2022-09-22T03:57:34.199Z,83.77
2022-09-22T03:58:34.150Z,83.77
2022-09-22T03:59:37.173Z,83.77
2022-09-22T04:00:37.125Z,83.63
2022-09-22T04:01:34.148Z,83.63
2022-09-22T04:02:34.178Z,83.63
2022-09-22T04:03:34.122Z,83.63
2022-09-22T04:04:34.074Z,83.53
2022-09-22T04:05:34.174Z,83.63
2022-09-22T04:06:34.042Z,83.53
2022-09-22T04:07:34.085Z,83.53
2022-09-22T04:08:34.161Z,83.53
2022-09-22T04:09:34.047Z,83.63
2022-09-22T04:10:34.002Z,83.63
2022-09-22T04:11:34.003Z,83.53
2022-09-22T04:12:33.964Z,83.63
2022-09-22T04:13:33.978Z,83.63
2022-09-22T04:14:34.045Z,83.63
2022-09-22T04:15:33.933Z,83.63
2022-09-22T04:16:34.074Z,83.73
2022-09-22T04:17:33.960Z,83.73
2022-09-22T04:18:34.035Z,83.73
2022-09-22T04:19:36.857Z,83.73
2022-09-22T04:20:36.895Z,83.73
2022-09-22T04:21:33.840Z,83.73
2022-09-22T04:22:33.912Z,83.73
2022-09-22T04:23:33.901Z,83.73
2022-09-22T04:24:33.925Z,83.84
2022-09-22T04:25:33.888Z,83.84
2022-09-22T04:26:33.807Z,83.84
2022-09-22T04:27:33.847Z,83.84
2022-09-22T04:28:33.766Z,83.84
2022-09-22T04:29:33.725Z,83.73
2022-09-22T04:30:33.815Z,83.73
2022-09-22T04:31:33.746Z,83.77
2022-09-22T04:32:33.813Z,83.87
2022-09-22T04:33:33.677Z,83.84
2022-09-22T04:34:33.755Z,83.87
2022-09-22T04:35:33.716Z,83.77
2022-09-22T04:36:33.669Z,83.77
2022-09-22T04:37:33.715Z,83.77
2022-09-22T04:38:34.258Z,83.77
2022-09-22T04:39:36.683Z,83.77
2022-09-22T04:40:36.780Z,83.77
2022-09-22T04:41:33.645Z,83.67
2022-09-22T04:42:33.783Z,83.67
2022-09-22T04:43:33.722Z,83.67
2022-09-22T04:44:35.450Z,83.67
2022-09-22T04:45:38.810Z,83.67
2022-09-22T04:46:34.585Z,83.67
2022-09-22T04:47:33.618Z,83.67
2022-09-22T04:48:33.588Z,83.67
2022-09-22T04:49:33.491Z,83.77
2022-09-22T04:50:33.481Z,83.87
2022-09-22T04:51:33.520Z,83.98
2022-09-22T04:52:33.420Z,83.98
2022-09-22T04:53:33.401Z,84.08
2022-09-22T04:54:33.503Z,84.19
2022-09-22T04:55:33.397Z,84.19
2022-09-22T04:56:33.383Z,84.29
2022-09-22T04:57:33.346Z,84.22
2022-09-22T04:58:33.436Z,84.33
2022-09-22T04:59:36.343Z,84.33
2022-09-22T05:00:36.342Z,84.43
2022-09-22T05:01:33.449Z,84.43
2022-09-22T05:02:33.446Z,84.43
2022-09-22T05:03:33.379Z,84.33
2022-09-22T05:04:33.269Z,84.33
2022-09-22T05:05:33.418Z,84.33
2022-09-22T05:06:33.521Z,84.33
2022-09-22T05:07:33.338Z,84.33
2022-09-22T05:08:33.314Z,84.33
2022-09-22T05:09:33.398Z,84.33
2022-09-22T05:10:33.287Z,84.43
2022-09-22T05:11:33.449Z,84.43
2022-09-22T05:12:33.137Z,84.43
2022-09-22T05:13:33.187Z,84.43
2022-09-22T05:14:33.245Z,84.43
2022-09-22T05:15:33.313Z,84.43
2022-09-22T05:16:33.245Z,84.43
2022-09-22T05:17:33.160Z,84.43
2022-09-22T05:18:33.130Z,84.33
2022-09-22T05:19:36.077Z,84.33
2022-09-22T05:20:36.157Z,84.33
2022-09-22T05:21:33.085Z,84.33
2022-09-22T05:22:37.681Z,84.22
2022-09-22T05:23:35.688Z,84.22
2022-09-22T05:24:33.208Z,84.12
2022-09-22T05:25:33.166Z,84.12
2022-09-22T05:26:40.009Z,84.12
2022-09-22T05:27:32.915Z,84.19
2022-09-22T05:28:32.904Z,84.19
2022-09-22T05:29:32.897Z,84.29
2022-09-22T05:30:32.877Z,84.29
2022-09-22T05:31:32.915Z,84.29
2022-09-22T05:32:32.888Z,84.19
2022-09-22T05:33:32.837Z,84.08
2022-09-22T05:34:32.828Z,84.08
2022-09-22T05:35:36.706Z,83.98
2022-09-22T05:36:32.799Z,83.87
2022-09-22T05:37:32.790Z,83.87
2022-09-22T05:38:32.847Z,83.87
2022-09-22T05:39:35.758Z,83.73
2022-09-22T05:40:35.799Z,83.73
2022-09-22T05:41:32.731Z,83.63
2022-09-22T05:42:32.725Z,83.53
2022-09-22T05:43:32.700Z,83.42
2022-09-22T05:44:32.719Z,83.38
2022-09-22T05:45:32.795Z,83.17
2022-09-22T05:46:32.673Z,83.07
2022-09-22T05:47:32.650Z,83.03
2022-09-22T05:48:32.713Z,82.93
2022-09-22T05:49:32.627Z,82.82
2022-09-22T05:50:32.611Z,82.82
2022-09-22T05:51:32.600Z,82.79
2022-09-22T05:52:32.592Z,82.68
2022-09-22T05:53:32.577Z,82.68
2022-09-22T05:54:32.593Z,82.68
2022-09-22T05:55:32.551Z,82.68
2022-09-22T05:56:32.552Z,82.65
2022-09-22T05:57:32.522Z,82.54
2022-09-22T05:58:32.510Z,82.44
2022-09-22T05:59:35.524Z,82.44
2022-09-22T06:00:35.500Z,82.44
2022-09-22T06:01:32.535Z,82.34
2022-09-22T06:02:32.496Z,82.29
2022-09-22T06:03:32.451Z,82.19
2022-09-22T06:04:32.550Z,82.19
2022-09-22T06:05:33.433Z,82.19
2022-09-22T06:06:32.448Z,82.19
2022-09-22T06:07:32.395Z,82.29
2022-09-22T06:08:32.399Z,82.29
2022-09-22T06:09:32.365Z,82.40
2022-09-22T06:10:32.408Z,82.40
2022-09-22T06:11:32.343Z,82.36
2022-09-22T06:12:32.333Z,82.46
2022-09-22T06:13:32.326Z,82.46
2022-09-22T06:14:32.310Z,82.46
2022-09-22T06:15:32.296Z,82.46
2022-09-22T06:16:32.337Z,82.46
2022-09-22T06:17:32.296Z,82.46
2022-09-22T06:18:32.246Z,82.36
2022-09-22T06:19:35.237Z,82.32
2022-09-22T06:20:35.237Z,82.32
2022-09-22T06:21:32.235Z,82.22
2022-09-22T06:22:32.213Z,82.12
2022-09-22T06:23:32.178Z,82.08
2022-09-22T06:24:32.174Z,81.98
2022-09-22T06:25:32.162Z,81.87
2022-09-22T06:26:32.166Z,81.77
2022-09-22T06:27:32.125Z,81.63
2022-09-22T06:28:32.118Z,81.52
2022-09-22T06:29:32.096Z,81.52
2022-09-22T06:30:32.087Z,81.07
2022-09-22T06:31:32.162Z,80.56
2022-09-22T06:32:32.063Z,80.35
2022-09-22T06:33:32.042Z,80.21
2022-09-22T06:34:32.032Z,80.21
2022-09-22T06:35:32.008Z,80.21
2022-09-22T06:36:31.998Z,80.11
2022-09-22T06:37:32.018Z,80.18
2022-09-22T06:38:31.997Z,80.18
2022-09-22T06:39:34.962Z,80.18
2022-09-22T06:40:35.016Z,80.28
2022-09-22T06:41:31.958Z,80.18
2022-09-22T06:42:31.921Z,80.18
2022-09-22T06:43:31.899Z,80.18
2022-09-22T06:44:31.891Z,80.04
2022-09-22T06:45:31.997Z,80.04
2022-09-22T06:46:31.889Z,80.04
2022-09-22T06:47:31.841Z,79.93
2022-09-22T06:48:31.839Z,79.83
2022-09-22T06:49:31.862Z,79.90
2022-09-22T06:50:31.912Z,80.00
2022-09-22T06:51:31.791Z,79.90
2022-09-22T06:52:32.523Z,79.79
2022-09-22T06:53:31.762Z,79.79
2022-09-22T06:54:31.754Z,79.69
2022-09-22T06:55:31.763Z,79.69
2022-09-22T06:56:34.784Z,79.65
2022-09-22T06:57:31.704Z,79.65
2022-09-22T06:58:46.994Z,79.65
2022-09-22T06:59:35.691Z,79.65
2022-09-22T07:00:34.772Z,79.55
2022-09-22T07:01:31.776Z,79.65
2022-09-22T07:02:31.673Z,79.41
2022-09-22T07:03:31.625Z,79.00
2022-09-22T07:04:31.616Z,79.10
2022-09-22T07:05:31.604Z,78.89
2022-09-22T07:06:31.601Z,78.69
2022-09-22T07:07:31.601Z,78.44
2022-09-22T07:08:31.567Z,78.34
2022-09-22T07:09:31.557Z,78.44
2022-09-22T07:10:31.544Z,78.55
2022-09-22T07:11:34.219Z,78.65
2022-09-22T07:12:31.516Z,78.65
2022-09-22T07:13:31.497Z,78.72
2022-09-22T07:14:31.496Z,78.72
2022-09-22T07:15:31.468Z,78.51
2022-09-22T07:16:31.521Z,78.61
2022-09-22T07:17:31.448Z,78.61
2022-09-22T07:18:31.428Z,78.72
2022-09-22T07:19:34.409Z,78.68
2022-09-22T07:20:34.417Z,78.68
2022-09-22T07:21:31.440Z,78.68
2022-09-22T07:22:31.386Z,79.09
2022-09-22T07:23:31.360Z,78.99
2022-09-22T07:24:31.362Z,78.89
2022-09-22T07:25:31.330Z,78.89
2022-09-22T07:26:31.330Z,78.75
2022-09-22T07:27:31.342Z,78.85
2022-09-22T07:28:31.301Z,78.85
2022-09-22T07:29:31.313Z,78.85
2022-09-22T07:30:31.271Z,78.85
2022-09-22T07:31:31.365Z,79.05
2022-09-22T07:32:31.242Z,79.16
2022-09-22T07:33:31.232Z,78.96
2022-09-22T07:34:31.273Z,78.92
2022-09-22T07:35:31.242Z,79.12
2022-09-22T07:36:31.195Z,79.02
2022-09-22T07:37:31.175Z,78.92
2022-09-22T07:38:31.163Z,78.92
2022-09-22T07:39:34.145Z,78.88
2022-09-22T07:40:34.251Z,78.88
2022-09-22T07:41:31.122Z,79.39
2022-09-22T07:42:31.105Z,79.08
2022-09-22T07:43:31.096Z,79.19
2022-09-22T07:44:31.083Z,79.08
2022-09-22T07:45:31.126Z,79.29
2022-09-22T07:46:31.114Z,79.25
2022-09-22T07:47:31.046Z,79.25
2022-09-22T07:48:31.026Z,79.15
2022-09-22T07:49:31.017Z,79.25
2022-09-22T07:50:30.997Z,79.25
2022-09-22T07:51:30.988Z,79.42
2022-09-22T07:52:30.997Z,79.22
2022-09-22T07:53:30.965Z,79.22
2022-09-22T07:54:30.949Z,79.32
2022-09-22T07:55:30.948Z,79.42
2022-09-22T07:56:30.952Z,79.28
2022-09-22T07:57:30.908Z,79.18
2022-09-22T07:58:30.900Z,79.38
2022-09-22T07:59:33.907Z,79.38
2022-09-22T08:00:33.985Z,79.45
2022-09-22T08:01:30.850Z,79.86
2022-09-22T08:02:30.838Z,80.07
2022-09-22T08:03:30.829Z,80.27
2022-09-22T08:04:30.831Z,80.17
2022-09-22T08:05:31.776Z,80.47
2022-09-22T08:06:30.833Z,80.44
2022-09-22T08:07:30.772Z,80.03
2022-09-22T08:08:30.751Z,80.33
2022-09-22T08:09:30.744Z,80.64
2022-09-22T08:10:30.724Z,80.60
2022-09-22T08:11:30.740Z,80.60
2022-09-22T08:12:30.726Z,80.81
2022-09-22T08:13:30.691Z,81.12
2022-09-22T08:14:30.673Z,81.01
2022-09-22T08:15:30.654Z,80.67
2022-09-22T08:16:30.726Z,80.88
2022-09-22T08:17:30.655Z,81.08
2022-09-22T08:18:30.617Z,81.65
2022-09-22T08:19:33.603Z,81.35
2022-09-22T08:20:33.607Z,81.24
2022-09-22T08:21:30.575Z,81.65
2022-09-22T08:22:30.585Z,81.41
2022-09-22T08:23:30.555Z,81.31
2022-09-22T08:24:30.539Z,81.31
2022-09-22T08:25:30.611Z,81.93
2022-09-22T08:26:30.546Z,81.68
2022-09-22T08:27:30.537Z,81.88
2022-09-22T08:28:30.481Z,81.79
2022-09-22T08:29:30.495Z,81.99
2022-09-22T08:30:30.472Z,81.85
2022-09-22T08:31:30.495Z,82.67
2022-09-22T08:32:30.452Z,82.77
2022-09-22T08:33:30.417Z,82.77
2022-09-22T08:34:30.398Z,83.07
2022-09-22T08:35:30.388Z,83.28
2022-09-22T08:36:30.384Z,83.24
2022-09-22T08:37:30.388Z,83.24
2022-09-22T08:38:30.339Z,83.04
2022-09-22T08:39:33.359Z,82.73
2022-09-22T08:40:33.399Z,82.28
2022-09-22T08:41:30.310Z,82.69
2022-09-22T08:42:30.317Z,83.00
2022-09-22T08:43:30.281Z,83.37
2022-09-22T08:44:30.261Z,83.47
2022-09-22T08:45:30.253Z,83.67
2022-09-22T08:46:30.285Z,84.08
2022-09-22T08:47:30.265Z,83.84
2022-09-22T08:48:30.213Z,83.84
2022-09-22T08:49:30.265Z,84.04
2022-09-22T08:50:30.267Z,83.80
2022-09-22T08:51:30.227Z,84.00
2022-09-22T08:52:30.153Z,84.41
2022-09-22T08:53:30.144Z,84.61
2022-09-22T08:54:30.137Z,84.58
2022-09-22T08:55:30.145Z,84.78
2022-09-22T08:56:30.125Z,85.49
2022-09-22T08:57:30.149Z,85.80
2022-09-22T08:58:30.090Z,86.00
2022-09-22T08:59:33.065Z,85.75
2022-09-22T09:00:33.067Z,86.06
2022-09-22T09:01:30.158Z,86.16
2022-09-22T09:02:30.063Z,86.77
2022-09-22T09:03:30.014Z,86.88
2022-09-22T09:04:30.004Z,86.83
2022-09-22T09:05:29.987Z,86.74
2022-09-22T09:06:29.977Z,87.00
2022-09-22T09:07:30.016Z,87.20
2022-09-22T09:08:29.938Z,87.51
2022-09-22T09:09:29.939Z,87.61
2022-09-22T09:10:30.033Z,87.71
2022-09-22T09:11:29.910Z,87.87
2022-09-22T09:12:29.881Z,87.57
2022-09-22T09:13:29.912Z,87.57
2022-09-22T09:14:29.861Z,88.08
2022-09-22T09:15:29.847Z,88.04
2022-09-22T09:16:31.898Z,88.13
2022-09-22T09:17:29.820Z,88.24
2022-09-22T09:18:29.801Z,88.13
2022-09-22T09:19:32.815Z,88.13
2022-09-22T09:20:32.783Z,88.20
2022-09-22T09:21:29.761Z,88.20
2022-09-22T09:22:29.742Z,88.40
2022-09-22T09:25:22.099Z,87.79
2022-09-22T09:25:30.704Z,88.16
2022-09-22T09:26:29.704Z,88.16
2022-09-22T09:27:29.685Z,88.06
2022-09-22T09:28:29.664Z,88.16
2022-09-22T09:29:29.646Z,88.06
2022-09-22T09:30:29.659Z,87.92
2022-09-22T09:31:29.649Z,87.92
2022-09-22T09:32:29.605Z,87.81
2022-09-22T09:33:29.595Z,87.71
2022-09-22T09:34:29.576Z,87.61
2022-09-22T09:35:29.644Z,87.87
2022-09-22T09:36:29.547Z,87.67
2022-09-22T09:37:29.539Z,87.37
2022-09-22T09:38:29.518Z,87.37
2022-09-22T09:39:32.508Z,87.43
2022-09-22T09:40:32.584Z,87.43
2022-09-22T09:41:29.487Z,87.32
2022-09-22T09:42:29.590Z,87.63
2022-09-22T09:43:29.459Z,86.21
2022-09-22T09:44:29.441Z,86.88
2022-09-22T09:45:29.480Z,86.27
2022-09-22T09:46:29.436Z,86.07
2022-09-22T09:47:29.405Z,85.96
2022-09-22T09:48:29.381Z,85.36
2022-09-22T09:49:29.371Z,83.73
2022-09-22T09:50:29.352Z,84.64
2022-09-22T09:51:29.373Z,83.69
2022-09-22T09:52:29.332Z,83.09
2022-09-22T09:53:29.344Z,84.00
2022-09-22T09:54:29.314Z,84.36
2022-09-22T09:55:29.568Z,83.55
2022-09-22T09:56:29.354Z,81.83
2022-09-22T09:57:29.305Z,83.35
2022-09-22T09:58:29.257Z,82.54
2022-09-22T09:59:32.235Z,81.52
2022-09-22T10:00:32.547Z,82.20
2022-09-22T10:01:29.261Z,82.30
2022-09-22T10:02:29.344Z,81.79
2022-09-22T10:03:29.293Z,78.45
2022-09-22T10:04:29.218Z,75.42
2022-09-22T10:05:29.277Z,74.91
2022-09-22T10:06:29.209Z,76.63
2022-09-22T10:07:29.129Z,78.05
2022-09-22T10:08:29.109Z,79.02
2022-09-22T10:09:29.140Z,79.53
2022-09-22T10:10:29.193Z,77.71
2022-09-22T10:11:29.161Z,78.42
2022-09-22T10:12:29.107Z,77.30
2022-09-22T10:13:29.110Z,72.65
2022-09-22T10:14:29.061Z,73.32
2022-09-22T10:15:29.136Z,74.63
2022-09-22T10:16:29.007Z,73.72
2022-09-22T10:17:29.101Z,73.90
2022-09-22T10:18:29.079Z,74.70
2022-09-22T10:19:32.041Z,76.12
2022-09-22T10:20:31.978Z,74.19
2022-09-22T10:21:28.953Z,76.42
2022-09-22T10:22:28.923Z,76.93
2022-09-22T10:23:29.148Z,70.46
2022-09-22T10:24:28.904Z,69.85
2022-09-22T10:25:28.903Z,73.28
2022-09-22T10:26:28.876Z,72.34
2022-09-22T10:27:28.854Z,70.02
2022-09-22T10:28:28.846Z,66.89
2022-09-22T10:29:28.864Z,69.21
2022-09-22T10:30:28.867Z,69.62
2022-09-22T10:31:28.839Z,71.03
2022-09-22T10:32:28.786Z,71.53
2022-09-22T10:33:28.777Z,70.22
2022-09-22T10:34:28.762Z,73.35
2022-09-22T10:35:28.754Z,72.75
2022-09-22T10:36:28.783Z,71.84
2022-09-22T10:37:28.730Z,73.55
2022-09-22T10:38:28.756Z,72.64
2022-09-22T10:39:31.701Z,72.31
2022-09-22T10:40:31.761Z,68.37
2022-09-22T10:41:28.669Z,66.25
2022-09-22T10:42:28.713Z,66.86
2022-09-22T10:43:28.641Z,67.97
2022-09-22T10:44:38.593Z,69.45
2022-09-22T10:45:29.613Z,73.89
2022-09-22T10:46:28.743Z,68.51
2022-09-22T10:47:28.594Z,60.57
2022-09-22T10:48:28.595Z,64.40
2022-09-22T10:49:28.554Z,66.12
2022-09-22T10:50:28.552Z,64.78
2022-09-22T10:51:28.533Z,64.07
2022-09-22T10:52:28.513Z,65.31
2022-09-22T10:53:28.524Z,64.10
2022-09-22T10:54:28.515Z,65.64
2022-09-22T10:55:28.486Z,63.25
2022-09-22T10:56:28.456Z,65.27
2022-09-22T10:57:28.460Z,67.80
2022-09-22T10:58:28.455Z,70.83
2022-09-22T10:59:31.455Z,69.92
2022-09-22T11:00:33.052Z,68.71
2022-09-22T11:01:29.428Z,66.15
2022-09-22T11:02:28.413Z,67.97
2022-09-22T11:03:28.406Z,67.23
2022-09-22T11:04:28.492Z,65.92
2022-09-22T11:05:28.341Z,66.69
2022-09-22T11:06:28.323Z,65.78
2022-09-22T11:07:28.310Z,66.66
2022-09-22T11:08:28.331Z,65.52
2022-09-22T11:09:28.319Z,65.22
2022-09-22T11:10:28.329Z,63.27
2022-09-22T11:11:28.265Z,60.65
2022-09-22T11:12:28.243Z,58.81
2022-09-22T11:13:28.231Z,59.22
2022-09-22T11:14:28.213Z,59.82
2022-09-22T11:15:28.221Z,60.69
2022-09-22T11:16:28.242Z,59.69
2022-09-22T11:17:28.188Z,58.28
2022-09-22T11:18:28.165Z,56.57
2022-09-22T11:19:31.144Z,58.65
2022-09-22T11:20:31.152Z,59.36
2022-09-22T11:21:28.125Z,58.75
2022-09-22T11:22:28.165Z,59.23
2022-09-22T11:23:28.096Z,56.82
2022-09-22T11:24:28.076Z,56.49
2022-09-22T11:25:28.067Z,56.79
2022-09-22T11:26:35.685Z,57.29
2022-09-22T11:27:28.082Z,56.69
2022-09-22T11:28:28.105Z,56.49
2022-09-22T11:29:28.053Z,57.62
2022-09-22T11:30:28.039Z,57.52
2022-09-22T11:31:28.011Z,57.92
2022-09-22T11:32:28.005Z,59.23
2022-09-22T11:33:28.006Z,57.52
2022-09-22T11:34:28.202Z,57.32
2022-09-22T11:35:27.964Z,56.51
2022-09-22T11:36:27.938Z,56.31
2022-09-22T11:37:27.929Z,55.51
2022-09-22T11:38:27.907Z,56.92
2022-09-22T11:39:30.924Z,55.81
2022-09-22T11:40:30.941Z,56.62
2022-09-22T11:41:28.074Z,57.45
2022-09-22T11:42:27.866Z,56.97
2022-09-22T11:43:27.833Z,58.48
2022-09-22T11:44:27.824Z,57.81
2022-09-22T11:45:27.808Z,59.64
2022-09-22T11:46:27.862Z,59.34
2022-09-22T11:47:27.965Z,59.24
2022-09-22T11:48:27.766Z,56.82
2022-09-22T11:49:27.747Z,57.35
2022-09-22T11:50:27.783Z,57.12
2022-09-22T11:51:27.777Z,55.69
2022-09-22T11:52:27.705Z,56.40
2022-09-22T11:53:27.735Z,56.57
2022-09-22T11:54:27.747Z,55.83
2022-09-22T11:55:27.750Z,57.82
2022-09-22T11:56:27.695Z,54.53
2022-09-22T11:57:27.636Z,56.24
2022-09-22T11:58:27.654Z,54.46
2022-09-22T11:59:30.607Z,56.16
2022-09-22T12:00:30.668Z,55.76
2022-09-22T12:01:27.604Z,56.40
2022-09-22T12:02:27.705Z,56.29
2022-09-22T12:03:27.668Z,57.53
2022-09-22T12:04:27.562Z,57.53
2022-09-22T12:05:27.531Z,59.84
2022-09-22T12:06:27.571Z,59.17
2022-09-22T12:07:27.501Z,58.67
2022-09-22T12:08:27.500Z,61.29
2022-09-22T12:09:28.806Z,59.97
2022-09-22T12:10:27.572Z,59.77
2022-09-22T12:11:27.453Z,61.99
2022-09-22T12:12:27.513Z,59.24
2022-09-22T12:13:27.425Z,58.94
2022-09-22T12:14:27.414Z,57.93
2022-09-22T12:15:27.397Z,59.31
2022-09-22T12:16:27.385Z,59.48
2022-09-22T12:17:27.387Z,58.18
2022-09-22T12:18:27.395Z,58.15
2022-09-22T12:19:30.341Z,56.82
2022-09-22T12:20:30.349Z,55.31
2022-09-22T12:21:27.298Z,55.48
2022-09-22T12:22:27.298Z,53.07
2022-09-22T12:23:27.339Z,53.27
2022-09-22T12:24:27.351Z,52.77
2022-09-22T12:25:47.451Z,51.97
2022-09-22T12:26:28.276Z,52.97
2022-09-22T12:27:28.166Z,51.76
2022-09-22T12:28:27.233Z,51.97
2022-09-22T12:29:27.271Z,53.25
2022-09-22T12:30:27.245Z,52.42
2022-09-22T12:31:27.170Z,50.81
2022-09-22T12:32:27.163Z,52.22
2022-09-22T12:33:27.159Z,50.63
2022-09-22T12:34:27.133Z,52.14
2022-09-22T12:35:30.275Z,52.64
2022-09-22T12:36:27.105Z,51.81
2022-09-22T12:37:27.097Z,53.42
2022-09-22T12:38:27.084Z,54.83
2022-09-22T12:39:30.046Z,53.92
2022-09-22T12:40:30.144Z,53.82
2022-09-22T12:41:27.033Z,51.94
2022-09-22T12:42:27.027Z,53.27
2022-09-22T12:43:27.077Z,53.60
2022-09-22T12:44:27.007Z,54.03
2022-09-22T12:45:27.016Z,55.36
2022-09-22T12:46:27.058Z,56.27
2022-09-22T12:47:26.959Z,55.46
2022-09-22T12:48:26.946Z,57.07
2022-09-22T12:49:26.938Z,55.56
2022-09-22T12:50:26.941Z,55.23
2022-09-22T12:51:26.921Z,55.03
2022-09-22T12:52:27.091Z,55.91
2022-09-22T12:53:26.952Z,53.50